Time;durP1;ratioP1;P1;durP2;ratioP2;P2;SDS_P1;SDS_P2;PMS_P1;PMS_P2;Temp;Humidity;BMP_temperature;BMP_pressure;BME280_temperature;BME280_humidity;BME280_pressure;Samples;Min_cycle;Max_cycle;Signal;HPM_P1;HPM_P2
2023/09/09 00:00:39;;;;;;;9.23;8.43;;;28.70;50.40;;;;;;4995450;28;20457;-45
2023/09/09 00:03:04;;;;;;;8.30;7.70;;;28.70;50.40;;;;;;5001525;28;20261;-45
2023/09/09 00:05:32;;;;;;;9.13;8.43;;;28.70;50.50;;;;;;5003305;28;20821;-48
2023/09/09 00:07:58;;;;;;;9.23;8.37;;;28.60;50.60;;;;;;4999921;28;20240;-45
2023/09/09 00:10:23;;;;;;;9.07;8.30;;;28.60;50.70;;;;;;5003174;28;20437;-44
2023/09/09 00:12:49;;;;;;;10.37;9.47;;;28.60;50.70;;;;;;4994358;28;20203;-45
2023/09/09 00:15:14;;;;;;;9.10;8.50;;;28.50;50.60;;;;;;4997222;28;20202;-46
2023/09/09 00:17:40;;;;;;;8.73;7.90;;;28.50;50.60;;;;;;4999293;28;20201;-47
2023/09/09 00:20:08;;;;;;;9.53;8.73;;;28.50;51.20;;;;;;4997986;28;20543;-50
2023/09/09 00:22:34;;;;;;;8.80;8.10;;;28.40;50.80;;;;;;4996845;28;20742;-45
2023/09/09 00:25:00;;;;;;;9.90;9.00;;;28.40;50.90;;;;;;4998794;28;20442;-44
2023/09/09 00:27:25;;;;;;;9.53;7.20;;;28.40;50.80;;;;;;4999774;28;20288;-46
2023/09/09 00:29:51;;;;;;;8.97;8.20;;;28.40;50.80;;;;;;4999654;28;20656;-44
2023/09/09 00:32:16;;;;;;;9.63;8.73;;;28.40;50.80;;;;;;4999860;28;20333;-45
2023/09/09 00:34:42;;;;;;;9.40;8.60;;;28.40;50.80;;;;;;4998662;28;20347;-49
2023/09/09 00:37:08;;;;;;;9.17;8.30;;;28.40;50.70;;;;;;4998473;28;20316;-47
2023/09/09 00:39:34;;;;;;;9.13;8.27;;;28.40;50.70;;;;;;4992586;28;20199;-44
2023/09/09 00:41:59;;;;;;;8.00;7.37;;;28.40;50.60;;;;;;5005150;28;20500;-46
2023/09/09 00:44:25;;;;;;;9.30;8.40;;;28.40;50.60;;;;;;5011076;28;20683;-44
2023/09/09 00:46:51;;;;;;;9.43;8.27;;;28.40;50.50;;;;;;5007753;28;20268;-44
2023/09/09 00:49:17;;;;;;;10.00;8.97;;;28.40;50.60;;;;;;5002769;28;20186;-45
2023/09/09 00:51:44;;;;;;;9.57;8.27;;;28.40;50.60;;;;;;5009887;28;20448;-45
2023/09/09 00:54:13;;;;;;;9.40;8.70;;;28.40;50.60;;;;;;5008752;28;20221;-44
2023/09/09 00:56:39;;;;;;;9.70;8.80;;;28.40;50.60;;;;;;5010487;28;20448;-44
2023/09/09 00:59:05;;;;;;;8.43;7.73;;;28.30;50.60;;;;;;5008698;28;20933;-45
2023/09/09 01:01:32;;;;;;;9.13;8.33;;;28.30;50.80;;;;;;5007652;28;20202;-45
2023/09/09 01:03:57;;;;;;;8.60;7.90;;;28.30;50.70;;;;;;5007161;28;20237;-45
2023/09/09 01:06:23;;;;;;;9.90;8.03;;;28.30;50.70;;;;;;5006769;28;20568;-44
2023/09/09 01:08:49;;;;;;;8.47;7.87;;;28.30;50.60;;;;;;5009674;28;20194;-44
2023/09/09 01:11:15;;;;;;;8.40;7.70;;;28.30;50.60;;;;;;5011784;28;20198;-44
2023/09/09 01:13:40;;;;;;;8.50;7.80;;;28.30;50.50;;;;;;5011469;28;20194;-45
2023/09/09 01:16:07;;;;;;;10.50;8.97;;;28.30;50.50;;;;;;5011181;28;20216;-45
2023/09/09 01:18:34;;;;;;;8.97;8.27;;;28.30;50.50;;;;;;5014508;28;20198;-44
2023/09/09 01:21:19;;;;;;;9.03;8.23;;;28.30;50.50;;;;;;5014713;28;20506;-46
2023/09/09 01:23:45;;;;;;;9.40;8.60;;;28.30;50.40;;;;;;5014900;28;20455;-50
2023/09/09 01:26:10;;;;;;;9.77;8.97;;;28.30;50.40;;;;;;5013979;28;20559;-44
2023/09/09 01:28:37;;;;;;;9.67;8.70;;;28.30;50.40;;;;;;5012997;28;20437;-49
2023/09/09 01:31:02;;;;;;;9.67;8.87;;;28.30;50.50;;;;;;5006803;28;20247;-44
2023/09/09 01:33:28;;;;;;;8.90;8.07;;;28.20;50.50;;;;;;4999280;28;20444;-48
2023/09/09 01:35:53;;;;;;;9.53;8.83;;;28.20;50.50;;;;;;5004457;28;20190;-48
2023/09/09 01:38:19;;;;;;;8.87;8.17;;;28.20;50.60;;;;;;5009429;28;20554;-46
2023/09/09 01:40:45;;;;;;;9.87;9.17;;;28.20;50.60;;;;;;4999617;28;20213;-47
2023/09/09 01:43:10;;;;;;;9.57;8.70;;;28.20;50.60;;;;;;5002379;28;20253;-44
2023/09/09 01:45:36;;;;;;;9.53;8.83;;;28.10;50.50;;;;;;5001464;28;20301;-44
2023/09/09 01:48:01;;;;;;;9.47;8.67;;;28.10;50.50;;;;;;5007767;28;20235;-47
2023/09/09 01:50:27;;;;;;;9.23;8.50;;;28.10;50.60;;;;;;5006287;28;20456;-46
2023/09/09 01:52:53;;;;;;;9.63;8.70;;;28.10;50.50;;;;;;4996617;28;20257;-48
2023/09/09 01:55:18;;;;;;;9.30;8.60;;;28.10;50.60;;;;;;5002136;28;20227;-44
2023/09/09 01:57:44;;;;;;;10.60;9.50;;;28.10;50.60;;;;;;4996282;28;20198;-44
2023/09/09 02:00:11;;;;;;;10.33;9.50;;;28.10;50.50;;;;;;4999354;28;20201;-48
2023/09/09 02:02:37;;;;;;;9.73;8.90;;;28.10;50.50;;;;;;4999683;28;20277;-44
2023/09/09 02:05:03;;;;;;;9.00;8.30;;;28.00;50.50;;;;;;5007109;28;20477;-44
2023/09/09 02:07:28;;;;;;;9.43;8.73;;;28.00;50.40;;;;;;5002969;28;20225;-45
2023/09/09 02:09:54;;;;;;;9.47;8.57;;;28.00;50.50;;;;;;5002996;28;20198;-49
2023/09/09 02:12:19;;;;;;;9.30;8.60;;;28.00;50.50;;;;;;5003654;28;20225;-46
2023/09/09 02:14:45;;;;;;;9.50;8.67;;;28.00;50.50;;;;;;5000786;28;20193;-47
2023/09/09 02:17:12;;;;;;;9.13;8.33;;;28.00;50.50;;;;;;5003153;28;20560;-44
2023/09/09 02:19:38;;;;;;;10.17;9.17;;;28.00;50.50;;;;;;5002531;28;20649;-45
2023/09/09 02:22:05;;;;;;;9.00;8.20;;;27.90;50.50;;;;;;5000894;28;20452;-46
2023/09/09 02:24:30;;;;;;;9.67;8.90;;;27.90;50.70;;;;;;5003080;28;20201;-47
2023/09/09 02:26:56;;;;;;;8.70;8.00;;;27.80;50.70;;;;;;5009878;28;20964;-48
2023/09/09 02:29:21;;;;;;;8.60;7.90;;;27.80;50.80;;;;;;5001777;28;20217;-46
2023/09/09 02:31:47;;;;;;;8.77;8.07;;;27.80;50.80;;;;;;5002437;28;20202;-45
2023/09/09 02:34:13;;;;;;;9.43;8.63;;;27.80;50.70;;;;;;5008304;28;20209;-43
2023/09/09 02:36:44;;;;;;;9.73;8.70;;;27.80;50.70;;;;;;5005381;28;20201;-44
2023/09/09 02:39:10;;;;;;;9.43;8.53;;;27.80;50.70;;;;;;5004976;28;20271;-43
2023/09/09 02:41:35;;;;;;;10.60;9.80;;;27.80;50.70;;;;;;5002622;28;20449;-43
2023/09/09 02:44:01;;;;;;;8.50;7.80;;;27.80;50.70;;;;;;5012790;28;20452;-43
2023/09/09 02:46:27;;;;;;;9.23;8.37;;;27.80;50.80;;;;;;5009995;28;20236;-43
2023/09/09 02:48:52;;;;;;;9.30;8.50;;;27.80;50.80;;;;;;5004743;28;20198;-45
2023/09/09 02:51:18;;;;;;;9.53;8.73;;;27.80;50.90;;;;;;5011592;28;20203;-43
2023/09/09 02:53:43;;;;;;;8.87;8.17;;;27.70;50.90;;;;;;5009628;28;20186;-43
2023/09/09 02:56:09;;;;;;;9.00;8.30;;;27.80;50.90;;;;;;5010070;28;20293;-43
2023/09/09 02:58:34;;;;;;;13.73;8.83;;;27.70;50.90;;;;;;5011372;28;20206;-44
2023/09/09 03:01:04;;;;;;;10.03;8.97;;;27.70;50.90;;;;;;5011788;28;20193;-43
2023/09/09 03:03:31;;;;;;;10.27;9.33;;;27.80;50.90;;;;;;5006757;28;20295;-47
2023/09/09 03:05:57;;;;;;;10.43;9.33;;;27.70;50.80;;;;;;5011516;28;20515;-43
2023/09/09 03:08:23;;;;;;;11.40;10.40;;;27.60;50.80;;;;;;5011433;28;20444;-44
2023/09/09 03:10:49;;;;;;;10.10;9.10;;;27.60;51.00;;;;;;5005896;28;20503;-43
2023/09/09 03:13:14;;;;;;;9.73;8.83;;;27.50;51.20;;;;;;5000650;28;20679;-44
2023/09/09 03:15:40;;;;;;;8.53;7.83;;;27.40;51.30;;;;;;5010303;28;20197;-43
2023/09/09 03:18:05;;;;;;;9.07;8.37;;;27.40;51.40;;;;;;5010931;28;20268;-43
2023/09/09 03:20:31;;;;;;;9.33;8.63;;;27.40;51.30;;;;;;4993516;28;20190;-42
2023/09/09 03:22:59;;;;;;;11.50;9.73;;;27.50;51.20;;;;;;5001179;28;20198;-45
2023/09/09 03:25:24;;;;;;;9.33;8.37;;;27.50;51.20;;;;;;5002960;28;20611;-43
2023/09/09 03:27:50;;;;;;;9.83;9.03;;;27.50;51.20;;;;;;5008806;28;20542;-43
2023/09/09 03:30:15;;;;;;;10.50;9.50;;;27.50;51.10;;;;;;5002328;28;20194;-42
2023/09/09 03:32:41;;;;;;;9.90;9.00;;;27.50;51.10;;;;;;5004476;28;20577;-42
2023/09/09 03:35:08;;;;;;;9.63;8.83;;;27.50;51.10;;;;;;5009422;28;20232;-43
2023/09/09 03:37:33;;;;;;;9.80;9.00;;;27.50;51.00;;;;;;5010627;28;20207;-42
2023/09/09 03:39:59;;;;;;;8.40;7.80;;;27.50;51.00;;;;;;5007323;28;20929;-47
2023/09/09 03:42:25;;;;;;;9.30;8.60;;;27.50;51.00;;;;;;5001948;28;20194;-45
2023/09/09 03:44:51;;;;;;;9.10;8.33;;;27.40;51.10;;;;;;4995301;28;20217;-43
2023/09/09 03:47:16;;;;;;;9.17;8.47;;;27.40;51.10;;;;;;4998073;28;20221;-47
2023/09/09 03:49:42;;;;;;;10.53;9.57;;;27.40;51.20;;;;;;4999623;28;20463;-44
2023/09/09 03:52:07;;;;;;;10.10;9.20;;;27.30;51.10;;;;;;4999108;28;20205;-45
2023/09/09 03:54:33;;;;;;;9.20;8.50;;;27.40;51.20;;;;;;5005377;28;20233;-43
2023/09/09 03:56:58;;;;;;;9.73;8.90;;;27.30;51.20;;;;;;5004126;28;20205;-42
2023/09/09 03:59:29;;;;;;;9.90;9.10;;;27.30;51.30;;;;;;5001150;28;20623;-43
2023/09/09 04:01:54;;;;;;;10.90;10.00;;;27.30;51.20;;;;;;4988007;28;20245;-43
2023/09/09 04:04:20;;;;;;;10.00;9.17;;;27.30;51.20;;;;;;5002756;28;20948;-44
2023/09/09 04:06:45;;;;;;;9.70;8.80;;;27.30;51.20;;;;;;5011389;28;20356;-42
2023/09/09 04:09:20;;;;;;;12.13;9.77;;;27.30;51.20;;;;;;5001444;28;20209;-43
2023/09/09 04:11:45;;;;;;;9.83;8.93;;;27.20;51.20;;;;;;4997802;28;20194;-42
2023/09/09 04:14:11;;;;;;;9.17;8.40;;;27.20;51.30;;;;;;4998621;28;20477;-43
2023/09/09 04:16:37;;;;;;;10.53;9.53;;;27.20;51.30;;;;;;5002944;28;20221;-46
2023/09/09 04:19:02;;;;;;;9.67;8.80;;;27.20;51.30;;;;;;4996734;28;20198;-42
2023/09/09 04:21:28;;;;;;;9.00;8.30;;;27.20;51.30;;;;;;5000293;28;20241;-42
2023/09/09 04:23:54;;;;;;;9.07;8.27;;;27.20;51.20;;;;;;5007345;28;20194;-43
2023/09/09 04:26:19;;;;;;;10.00;9.10;;;27.10;51.40;;;;;;4999857;28;20704;-42
2023/09/09 04:28:45;;;;;;;10.50;9.57;;;27.10;51.40;;;;;;4999810;28;20278;-49
2023/09/09 04:31:10;;;;;;;10.27;9.40;;;27.10;51.40;;;;;;5001069;28;20240;-42
2023/09/09 04:33:36;;;;;;;9.30;8.20;;;27.10;51.40;;;;;;5000879;28;20214;-42
2023/09/09 04:36:01;;;;;;;8.40;7.80;;;27.10;51.40;;;;;;5008678;28;20201;-45
2023/09/09 04:38:27;;;;;;;13.10;9.70;;;27.10;51.50;;;;;;4999134;28;20757;-44
2023/09/09 04:40:53;;;;;;;9.60;8.70;;;27.10;51.40;;;;;;4996792;28;20264;-42
2023/09/09 04:43:18;;;;;;;10.40;9.60;;;27.10;51.40;;;;;;5003467;28;20237;-42
2023/09/09 04:45:44;;;;;;;9.87;9.07;;;27.10;51.40;;;;;;5006339;28;20654;-47
2023/09/09 04:48:10;;;;;;;9.10;8.40;;;27.10;51.50;;;;;;5014028;28;20236;-43
2023/09/09 04:50:35;;;;;;;9.80;8.90;;;27.10;51.50;;;;;;5006880;28;20712;-42
2023/09/09 04:53:02;;;;;;;9.43;8.60;;;27.10;51.50;;;;;;5014728;28;20495;-42
2023/09/09 04:55:28;;;;;;;9.87;9.07;;;27.00;51.50;;;;;;5013748;28;20197;-42
2023/09/09 04:57:54;;;;;;;10.33;9.50;;;27.00;51.50;;;;;;5014793;28;20461;-44
2023/09/09 05:00:20;;;;;;;9.77;8.97;;;27.10;51.50;;;;;;5010316;28;20466;-44
2023/09/09 05:02:45;;;;;;;9.50;8.80;;;27.10;51.50;;;;;;5014880;28;20260;-44
2023/09/09 05:05:11;;;;;;;10.33;9.53;;;27.00;51.90;;;;;;5010897;28;20630;-44
2023/09/09 05:07:37;;;;;;;11.57;9.40;;;26.90;51.60;;;;;;5005737;28;20214;-44
2023/09/09 05:10:06;;;;;;;9.50;8.70;;;27.00;51.70;;;;;;5014809;28;20199;-44
2023/09/09 05:12:33;;;;;;;10.67;9.77;;;27.00;51.60;;;;;;5003741;28;20560;-46
2023/09/09 05:14:58;;;;;;;9.83;8.93;;;27.00;52.00;;;;;;5001720;28;20528;-44
2023/09/09 05:17:24;;;;;;;10.27;9.27;;;27.00;51.50;;;;;;5006526;28;20528;-43
2023/09/09 05:19:50;;;;;;;11.27;10.27;;;26.90;51.50;;;;;;5003154;28;20259;-44
2023/09/09 05:22:16;;;;;;;10.83;9.70;;;26.90;51.50;;;;;;5005472;28;20190;-44
2023/09/09 05:24:42;;;;;;;9.40;8.70;;;26.80;51.80;;;;;;5004137;28;20197;-48
2023/09/09 05:27:07;;;;;;;9.30;8.60;;;26.80;51.90;;;;;;5009502;28;20852;-46
2023/09/09 05:29:33;;;;;;;10.43;9.40;;;26.80;51.80;;;;;;5006644;28;20194;-44
2023/09/09 05:31:59;;;;;;;10.27;9.40;;;26.80;51.80;;;;;;5003477;28;20233;-50
2023/09/09 05:34:24;;;;;;;9.93;9.03;;;26.70;51.80;;;;;;5007196;28;20186;-48
2023/09/09 05:36:50;;;;;;;11.00;10.00;;;26.50;52.30;;;;;;5001475;28;20240;-44
2023/09/09 05:39:16;;;;;;;10.60;9.63;;;26.40;52.30;;;;;;5003126;28;20190;-47
2023/09/09 05:41:41;;;;;;;11.07;9.97;;;26.20;53.00;;;;;;4998745;28;20284;-45
2023/09/09 05:44:07;;;;;;;10.70;9.70;;;26.00;53.30;;;;;;5002058;28;20481;-45
2023/09/09 05:46:32;;;;;;;10.80;9.80;;;25.90;53.70;;;;;;5001266;28;20241;-48
2023/09/09 05:48:58;;;;;;;10.60;9.70;;;25.70;54.70;;;;;;4998569;28;20198;-45
2023/09/09 05:51:24;;;;;;;10.07;9.17;;;25.60;54.90;;;;;;5000373;28;20194;-45
2023/09/09 05:53:51;;;;;;;10.07;9.03;;;25.60;54.70;;;;;;4998410;28;20197;-46
2023/09/09 05:56:17;;;;;;;12.13;10.07;;;25.80;54.50;;;;;;4995068;28;20237;-43
2023/09/09 05:58:42;;;;;;;10.53;9.63;;;25.90;54.30;;;;;;4996704;28;20445;-44
2023/09/09 06:01:08;;;;;;;11.03;10.00;;;26.00;54.10;;;;;;4999791;28;20940;-44
2023/09/09 06:03:35;;;;;;;10.60;9.70;;;26.10;53.80;;;;;;5003605;28;20229;-44
2023/09/09 06:06:01;;;;;;;10.63;9.63;;;26.00;53.90;;;;;;5001641;28;20205;-43
2023/09/09 06:08:27;;;;;;;11.90;10.73;;;26.00;54.00;;;;;;5011299;28;20519;-47
2023/09/09 06:10:53;;;;;;;11.30;10.40;;;26.00;53.90;;;;;;5012363;28;20441;-45
2023/09/09 06:13:18;;;;;;;11.03;10.07;;;25.80;54.50;;;;;;5011960;28;20198;-44
2023/09/09 06:15:44;;;;;;;12.97;10.17;;;25.50;55.50;;;;;;5011105;28;20186;-43
2023/09/09 06:18:10;;;;;;;11.27;10.17;;;25.60;55.30;;;;;;5003799;28;20556;-43
2023/09/09 06:20:35;;;;;;;10.73;9.93;;;25.60;55.40;;;;;;5009087;28;20198;-47
2023/09/09 06:23:01;;;;;;;10.37;9.57;;;25.80;55.20;;;;;;5004910;28;20335;-45
2023/09/09 06:25:26;;;;;;;9.50;8.70;;;25.90;54.90;;;;;;5007213;28;20202;-47
2023/09/09 06:27:52;;;;;;;11.40;10.40;;;25.90;54.90;;;;;;5005864;28;20232;-43
2023/09/09 06:30:17;;;;;;;9.47;8.67;;;26.10;54.90;;;;;;5003444;28;20208;-45
2023/09/09 06:32:43;;;;;;;10.70;9.70;;;26.20;54.70;;;;;;5008704;28;20261;-45
2023/09/09 06:35:08;;;;;;;10.67;9.73;;;26.30;54.60;;;;;;5012112;28;20197;-47
2023/09/09 06:37:34;;;;;;;11.80;10.80;;;26.30;54.90;;;;;;5012158;28;20570;-45
2023/09/09 06:40:00;;;;;;;10.67;9.57;;;26.20;55.30;;;;;;5000692;28;20671;-48
2023/09/09 06:42:25;;;;;;;11.13;10.03;;;25.90;56.10;;;;;;5013323;28;20615;-47
2023/09/09 06:44:51;;;;;;;10.53;9.63;;;26.00;56.00;;;;;;5008097;28;20197;-44
2023/09/09 06:47:16;;;;;;;12.50;11.30;;;26.20;55.70;;;;;;5013231;28;20218;-42
2023/09/09 06:49:42;;;;;;;11.60;10.70;;;26.20;55.70;;;;;;5005851;28;20688;-46
2023/09/09 06:52:07;;;;;;;11.57;10.47;;;26.10;56.40;;;;;;5010093;28;20285;-43
2023/09/09 06:54:33;;;;;;;13.00;11.70;;;26.00;57.00;;;;;;5012266;28;20237;-49
2023/09/09 06:56:59;;;;;;;12.00;11.00;;;25.90;57.30;;;;;;5010061;28;20198;-44
2023/09/09 06:59:24;;;;;;;11.80;10.67;;;25.80;58.60;;;;;;4999478;28;20876;-44
2023/09/09 07:01:51;;;;;;;11.50;10.50;;;26.10;57.60;;;;;;5000238;28;20232;-46
2023/09/09 07:04:16;;;;;;;13.53;12.33;;;26.30;56.90;;;;;;5008748;28;20194;-43
2023/09/09 07:06:42;;;;;;;12.40;11.43;;;26.40;56.50;;;;;;5012608;28;20480;-44
2023/09/09 07:09:09;;;;;;;12.77;11.60;;;26.40;56.70;;;;;;5013150;28;20248;-44
2023/09/09 07:11:35;;;;;;;13.20;11.80;;;26.30;57.10;;;;;;5010628;28;20256;-44
2023/09/09 07:14:00;;;;;;;11.50;10.40;;;26.40;56.80;;;;;;5011822;28;20936;-44
2023/09/09 07:16:28;;;;;;;11.60;10.70;;;26.60;56.30;;;;;;5013164;28;20816;-45
2023/09/09 07:18:53;;;;;;;11.50;10.60;;;26.70;56.50;;;;;;5012678;28;20190;-47
2023/09/09 07:21:19;;;;;;;12.07;11.00;;;26.70;56.70;;;;;;5012973;28;20858;-45
2023/09/09 07:23:44;;;;;;;12.20;11.10;;;26.60;56.80;;;;;;5010281;28;20638;-45
2023/09/09 07:26:10;;;;;;;12.13;10.93;;;26.50;57.20;;;;;;5012649;28;20201;-45
2023/09/09 07:28:35;;;;;;;11.47;10.47;;;26.70;57.10;;;;;;5012794;28;20680;-43
2023/09/09 07:31:02;;;;;;;14.33;11.07;;;26.80;57.00;;;;;;5010452;28;20270;-44
2023/09/09 07:33:28;;;;;;;12.77;10.80;;;26.80;56.90;;;;;;5011616;28;20193;-44
2023/09/09 07:35:54;;;;;;;11.27;10.33;;;26.80;57.00;;;;;;5012151;28;20809;-45
2023/09/09 07:38:19;;;;;;;12.57;11.37;;;27.10;56.60;;;;;;4999051;28;20203;-46
2023/09/09 07:40:45;;;;;;;11.20;10.10;;;27.30;56.20;;;;;;5009098;28;20194;-46
2023/09/09 07:43:11;;;;;;;11.33;10.23;;;27.30;56.00;;;;;;5007980;28;20209;-46
2023/09/09 07:45:36;;;;;;;11.00;9.90;;;27.20;56.10;;;;;;5007588;28;20196;-46
2023/09/09 07:48:02;;;;;;;11.57;10.40;;;27.40;56.10;;;;;;5007215;28;20225;-45
2023/09/09 07:50:28;;;;;;;12.97;10.80;;;27.40;56.20;;;;;;5007126;28;20198;-43
2023/09/09 07:52:53;;;;;;;11.77;10.73;;;27.40;56.10;;;;;;5008735;28;20727;-43
2023/09/09 07:55:19;;;;;;;12.30;11.20;;;27.50;55.90;;;;;;5007213;28;20198;-46
2023/09/09 07:57:44;;;;;;;11.90;10.83;;;27.60;55.70;;;;;;4997384;28;20201;-46
2023/09/09 08:00:11;;;;;;;10.83;9.93;;;27.80;55.80;;;;;;5011183;28;20532;-43
2023/09/09 08:02:36;;;;;;;12.23;11.17;;;27.90;55.30;;;;;;5008035;28;20238;-43
2023/09/09 08:05:03;;;;;;;11.07;9.97;;;28.10;54.80;;;;;;5004933;28;20437;-43
2023/09/09 08:07:29;;;;;;;12.13;11.00;;;28.20;54.30;;;;;;5009017;28;20271;-43
2023/09/09 08:09:54;;;;;;;12.00;11.00;;;28.30;54.00;;;;;;5010915;28;20440;-44
2023/09/09 08:12:20;;;;;;;11.70;10.80;;;28.50;53.60;;;;;;5009063;28;20198;-43
2023/09/09 08:14:47;;;;;;;12.13;11.23;;;28.60;53.70;;;;;;5009026;28;20190;-45
2023/09/09 08:17:13;;;;;;;12.43;11.33;;;28.60;53.50;;;;;;5005969;28;20206;-44
2023/09/09 08:19:38;;;;;;;10.90;9.90;;;28.70;53.90;;;;;;5008073;28;20502;-44
2023/09/09 08:22:04;;;;;;;12.23;11.13;;;28.80;53.60;;;;;;5011174;28;20196;-47
2023/09/09 08:24:29;;;;;;;11.10;10.10;;;28.80;53.70;;;;;;5010775;28;20194;-44
2023/09/09 08:26:55;;;;;;;12.47;11.20;;;28.80;53.20;;;;;;5007171;28;20214;-44
2023/09/09 08:29:20;;;;;;;11.27;10.37;;;29.00;52.80;;;;;;5010695;28;20229;-46
2023/09/09 08:31:47;;;;;;;10.90;10.10;;;29.10;52.80;;;;;;5011392;28;20193;-45
2023/09/09 08:34:13;;;;;;;11.63;10.73;;;29.20;52.30;;;;;;4999304;28;20201;-48
2023/09/09 08:36:38;;;;;;;10.73;9.83;;;29.30;52.50;;;;;;5010960;28;20441;-45
2023/09/09 08:39:04;;;;;;;12.00;10.80;;;29.40;52.20;;;;;;5001485;28;20275;-44
2023/09/09 08:42:02;;;;;;;12.37;11.37;;;29.60;51.80;;;;;;5003101;28;20222;-47
2023/09/09 08:44:37;;;;;;;10.47;9.67;;;29.70;51.30;;;;;;5002665;28;20252;-45
2023/09/09 08:47:04;;;;;;;10.80;9.80;;;29.70;50.90;;;;;;5009076;28;20488;-43
2023/09/09 08:49:33;;;;;;;10.07;9.33;;;29.80;50.70;;;;;;5006858;28;20445;-46
2023/09/09 08:52:03;;;;;;;10.30;9.40;;;29.80;50.80;;;;;;5007564;28;20445;-43
2023/09/09 08:54:29;;;;;;;11.20;10.07;;;30.00;50.60;;;;;;5006576;28;20438;-44
2023/09/09 08:56:57;;;;;;;11.53;10.53;;;30.00;50.90;;;;;;5008615;28;20442;-44
2023/09/09 08:59:23;;;;;;;10.90;10.00;;;30.20;50.90;;;;;;5000114;28;20441;-43
2023/09/09 09:01:51;;;;;;;12.20;11.10;;;30.30;50.50;;;;;;5004907;28;20809;-43
2023/09/09 09:04:18;;;;;;;11.17;10.17;;;30.40;50.00;;;;;;5009137;28;20503;-47
2023/09/09 09:06:47;;;;;;;11.90;10.90;;;30.50;49.90;;;;;;5009304;28;20885;-45
2023/09/09 09:09:14;;;;;;;10.50;9.50;;;30.60;49.60;;;;;;5003557;28;20909;-43
2023/09/09 09:11:39;;;;;;;11.20;10.20;;;30.70;49.20;;;;;;5009210;28;20436;-43
2023/09/09 09:14:07;;;;;;;11.43;10.53;;;30.80;49.50;;;;;;5003575;28;20561;-44
2023/09/09 09:16:38;;;;;;;11.80;10.80;;;30.90;49.30;;;;;;5008091;28;20240;-46
2023/09/09 09:19:04;;;;;;;10.40;9.40;;;31.00;49.20;;;;;;5000738;28;20453;-46
2023/09/09 09:21:35;;;;;;;11.17;10.17;;;31.10;48.90;;;;;;5007934;28;20436;-46
2023/09/09 09:24:01;;;;;;;10.90;10.00;;;31.20;48.90;;;;;;5010386;28;20196;-43
2023/09/09 09:26:29;;;;;;;11.40;10.50;;;31.40;48.60;;;;;;5006431;28;20481;-46
2023/09/09 09:28:55;;;;;;;10.50;9.70;;;31.60;48.30;;;;;;5006945;28;20440;-46
2023/09/09 09:31:23;;;;;;;10.47;9.67;;;31.80;48.30;;;;;;5003553;28;20447;-46
2023/09/09 09:33:56;;;;;;;12.03;10.37;;;31.90;47.60;;;;;;4999499;28;22037;-44
2023/09/09 09:36:22;;;;;;;11.00;9.93;;;31.90;47.00;;;;;;4997981;28;20442;-47
2023/09/09 09:38:49;;;;;;;10.87;10.07;;;32.10;47.10;;;;;;5007133;28;20593;-43
2023/09/09 09:41:17;;;;;;;10.90;10.00;;;32.00;47.70;;;;;;5013487;28;20443;-47
2023/09/09 09:43:44;;;;;;;9.87;9.17;;;32.10;47.40;;;;;;5009039;28;20532;-44
2023/09/09 09:46:20;;;;;;;10.47;9.43;;;32.30;47.20;;;;;;5006778;28;20956;-46
2023/09/09 09:48:46;;;;;;;10.93;10.03;;;32.50;47.40;;;;;;5011048;28;20990;-48
2023/09/09 09:51:12;;;;;;;11.40;10.50;;;32.60;46.40;;;;;;5011856;28;20449;-44
2023/09/09 09:53:49;;;;;;;11.60;10.50;;;32.70;45.20;;;;;;5005828;28;20507;-45
2023/09/09 09:56:15;;;;;;;10.70;9.80;;;32.70;45.40;;;;;;5005691;28;20968;-45
2023/09/09 09:58:44;;;;;;;10.87;10.00;;;32.80;46.40;;;;;;5008282;28;20834;-47
2023/09/09 10:01:10;;;;;;;10.20;9.27;;;32.90;46.30;;;;;;4989044;28;20448;-47
2023/09/09 10:03:45;;;;;;;10.60;9.60;;;33.00;46.10;;;;;;5006497;28;20473;-44
2023/09/09 10:06:13;;;;;;;10.07;9.37;;;33.20;46.20;;;;;;5005896;28;20448;-45
2023/09/09 10:08:46;;;;;;;9.87;9.07;;;33.40;46.40;;;;;;5009015;28;20449;-44
2023/09/09 10:11:15;;;;;;;11.13;9.70;;;33.50;46.20;;;;;;5010515;28;20940;-45
2023/09/09 10:13:48;;;;;;;10.43;9.63;;;33.70;46.00;;;;;;5011796;28;20443;-47
2023/09/09 10:16:16;;;;;;;10.70;9.60;;;33.90;44.60;;;;;;5011440;28;20444;-49
2023/09/09 10:18:44;;;;;;;8.57;7.80;;;34.10;44.50;;;;;;5009695;28;20444;-50
2023/09/09 10:21:12;;;;;;;9.80;8.80;;;34.20;43.20;;;;;;5009857;28;20515;-44
2023/09/09 10:23:38;;;;;;;8.50;7.87;;;34.40;43.00;;;;;;5012028;28;20448;-46
2023/09/09 10:26:04;;;;;;;8.80;8.00;;;34.50;43.00;;;;;;4994162;28;20441;-46
2023/09/09 10:28:31;;;;;;;9.67;8.90;;;34.60;42.10;;;;;;5010041;28;20528;-44
2023/09/09 10:30:59;;;;;;;9.43;8.73;;;34.80;41.00;;;;;;5006935;28;20441;-49
2023/09/09 10:33:27;;;;;;;9.23;8.33;;;34.90;40.90;;;;;;5010925;28;20445;-48
2023/09/09 10:35:55;;;;;;;8.37;7.67;;;35.00;40.40;;;;;;5010802;28;20449;-45
2023/09/09 10:38:23;;;;;;;8.00;7.40;;;35.10;40.00;;;;;;5005124;28;20460;-46
2023/09/09 10:40:49;;;;;;;8.30;7.60;;;35.10;39.60;;;;;;5006176;28;20440;-49
2023/09/09 10:43:15;;;;;;;8.70;8.00;;;35.20;40.30;;;;;;5005324;28;20445;-45
2023/09/09 10:45:43;;;;;;;8.53;7.93;;;35.40;38.90;;;;;;5002514;28;20459;-48
2023/09/09 10:48:12;;;;;;;9.20;8.30;;;35.50;39.70;;;;;;4997155;28;20268;-45
2023/09/09 10:50:46;;;;;;;8.63;8.00;;;35.70;39.40;;;;;;5003715;28;20939;-47
2023/09/09 10:53:21;;;;;;;7.40;6.90;;;35.70;39.20;;;;;;5004067;28;20817;-51
2023/09/09 10:55:48;;;;;;;9.53;8.63;;;35.80;37.60;;;;;;5007292;28;20464;-46
2023/09/09 10:58:18;;;;;;;8.60;8.00;;;36.00;38.20;;;;;;5007710;28;20480;-47
2023/09/09 11:00:50;;;;;;;8.90;8.10;;;36.20;37.80;;;;;;5004696;28;20529;-49
2023/09/09 11:03:22;;;;;;;10.53;7.57;;;36.30;37.90;;;;;;5009010;28;20480;-49
2023/09/09 11:06:05;;;;;;;7.30;6.60;;;36.50;36.30;;;;;;5013307;28;20444;-45
2023/09/09 11:09:02;;;;;;;7.37;6.70;;;36.50;35.30;;;;;;5004745;28;20465;-46
2023/09/09 11:11:33;;;;;;;6.90;6.30;;;36.60;35.10;;;;;;5001772;28;20526;-49
2023/09/09 11:14:02;;;;;;;9.10;7.17;;;36.70;35.00;;;;;;5008934;28;20448;-45
2023/09/09 11:16:35;;;;;;;8.70;7.60;;;36.70;35.10;;;;;;5012388;28;20463;-48
2023/09/09 11:19:06;;;;;;;8.10;7.60;;;36.70;35.10;;;;;;5008920;28;20445;-44
2023/09/09 11:21:33;;;;;;;7.97;7.27;;;36.70;36.00;;;;;;5002656;28;20450;-46
2023/09/09 11:24:00;;;;;;;7.27;6.67;;;36.80;35.20;;;;;;5001445;28;20441;-47
2023/09/09 11:26:27;;;;;;;8.17;7.47;;;36.80;35.10;;;;;;5008065;28;20472;-48
2023/09/09 11:28:53;;;;;;;7.50;7.00;;;36.90;35.60;;;;;;5004206;28;20452;-45
2023/09/09 11:31:18;;;;;;;7.03;6.50;;;37.10;35.30;;;;;;5010625;28;20547;-48
2023/09/09 11:33:44;;;;;;;7.13;6.43;;;37.30;34.50;;;;;;5007825;28;20194;-47
2023/09/09 11:36:14;;;;;;;7.90;5.90;;;37.30;33.50;;;;;;5004338;28;20192;-45
2023/09/09 11:38:39;;;;;;;8.43;6.53;;;37.30;33.80;;;;;;4999265;28;20637;-48
2023/09/09 11:41:05;;;;;;;10.53;6.00;;;37.30;33.60;;;;;;4998014;28;20448;-46
2023/09/09 11:43:31;;;;;;;10.40;6.17;;;37.20;33.80;;;;;;5009090;28;20193;-51
2023/09/09 11:45:57;;;;;;;8.27;6.23;;;37.30;34.20;;;;;;5011351;28;20919;-47
2023/09/09 11:48:23;;;;;;;11.20;6.03;;;37.50;34.00;;;;;;5010638;28;20236;-49
2023/09/09 11:50:50;;;;;;;6.10;5.70;;;37.50;33.90;;;;;;5006913;28;20191;-48
2023/09/09 11:53:19;;;;;;;7.87;6.07;;;37.60;33.30;;;;;;5005305;28;20532;-48
2023/09/09 11:55:45;;;;;;;8.40;6.60;;;37.70;33.40;;;;;;5009461;28;20457;-49
2023/09/09 11:58:10;;;;;;;11.97;6.77;;;37.80;32.60;;;;;;5007997;28;20467;-44
2023/09/09 12:00:36;;;;;;;8.63;6.37;;;37.80;32.80;;;;;;5012154;28;20193;-44
2023/09/09 12:03:02;;;;;;;6.63;6.03;;;37.80;32.70;;;;;;5007643;28;20229;-45
2023/09/09 12:05:30;;;;;;;9.50;6.40;;;38.00;33.40;;;;;;5001478;28;20272;-50
2023/09/09 12:07:59;;;;;;;7.17;6.33;;;38.10;33.60;;;;;;5001768;28;20596;-50
2023/09/09 12:10:33;;;;;;;8.30;6.27;;;38.10;32.80;;;;;;4996109;28;20433;-48
2023/09/09 12:12:59;;;;;;;9.20;6.23;;;38.10;32.40;;;;;;5001024;28;21005;-47
2023/09/09 12:15:26;;;;;;;7.70;6.40;;;38.00;32.50;;;;;;5003184;28;20543;-46
2023/09/09 12:17:52;;;;;;;8.30;6.20;;;37.90;32.70;;;;;;4999681;28;21012;-50
2023/09/09 12:20:18;;;;;;;7.33;6.17;;;38.10;32.70;;;;;;5002649;28;20464;-50
2023/09/09 12:22:50;;;;;;;6.90;6.30;;;38.30;32.20;;;;;;5001040;28;20590;-50
2023/09/09 12:25:37;;;;;;;9.73;6.80;;;38.40;32.70;;;;;;5002138;28;20197;-47
2023/09/09 12:28:03;;;;;;;7.83;7.00;;;38.40;32.90;;;;;;5010952;28;20517;-51
2023/09/09 12:30:37;;;;;;;7.60;6.97;;;38.50;33.50;;;;;;5006161;28;20970;-49
2023/09/09 12:33:13;;;;;;;8.03;6.37;;;38.50;34.10;;;;;;5002542;28;20546;-45
2023/09/09 12:35:43;;;;;;;9.87;6.43;;;38.70;33.60;;;;;;5005762;28;20438;-48
2023/09/09 12:38:14;;;;;;;7.90;7.20;;;38.80;32.50;;;;;;5000985;28;20448;-47